Terminal Aerodrome Forecast
Issued by NWS Albany, NY

Home | Current Version | Previous Version | Text Only | Print | Product List | Glossary On
Versions: 1 2 3 4 5 6 7 8 9 10 11 12 13 14 15 16 17 18 19 20 21 22 23
000
FTUS41 KALY 261929 AAA
TAFALB
TAF AMD
KALB 261929Z 2619/2718 29012KT P6SM SCT025 BKN030
     FM262100 29012G22KT P6SM SCT030 BKN040
     FM270200 21005KT P6SM SCT040 SCT250
     FM270700 VRB03KT P6SM BKN250
     FM271200 15004KT P6SM BKN050 BKN100
     FM271500 14005KT 5SM -SHRA BR SCT025 OVC050=

USA.gov is the U.S. government's official web portal to all federal, state and local government web resources and services.